Time;durP1;ratioP1;P1;durP2;ratioP2;P2;SDS_P1;SDS_P2;PMS_P1;PMS_P2;Temp;Humidity;BMP_temperature;BMP_pressure;BME280_temperature;BME280_humidity;BME280_pressure;Samples;Min_cycle;Max_cycle;Signal;HPM_P1;HPM_P2
2024/02/15 00:02:22;;;;;;;6.30;5.70;;;12.90;99.90;;;;;;6254640;22;20011;-93
2024/02/15 00:04:48;;;;;;;5.57;4.43;;;12.90;99.90;;;;;;6279554;22;20320;-91
2024/02/15 00:07:14;;;;;;;4.80;3.55;;;12.80;99.90;;;;;;6279887;22;20015;-92
2024/02/15 00:09:40;;;;;;;6.32;5.00;;;12.90;99.90;;;;;;6255945;22;20065;-91
2024/02/15 00:12:05;;;;;;;7.10;4.47;;;12.90;99.90;;;;;;6280474;22;20011;-91
2024/02/15 00:14:31;;;;;;;4.03;3.58;;;12.80;99.90;;;;;;6280734;22;20015;-90
2024/02/15 00:16:58;;;;;;;5.93;4.40;;;12.70;99.90;;;;;;6254682;22;19999;-92
2024/02/15 00:19:23;;;;;;;7.50;5.53;;;12.80;99.90;;;;;;6254768;22;20445;-91
2024/02/15 00:21:49;;;;;;;4.95;3.88;;;12.80;99.90;;;;;;6255119;22;20018;-92
2024/02/15 00:24:15;;;;;;;4.32;3.70;;;12.80;99.90;;;;;;6254622;22;20013;-91
2024/02/15 00:26:42;;;;;;;3.72;3.22;;;12.80;99.90;;;;;;6280865;22;20018;-91
2024/02/15 00:29:08;;;;;;;5.75;4.38;;;12.70;99.90;;;;;;6280740;22;20026;-91
2024/02/15 00:31:35;;;;;;;5.13;4.03;;;12.80;99.90;;;;;;6279731;22;20015;-91
2024/02/15 00:34:02;;;;;;;5.07;3.88;;;12.80;99.90;;;;;;6254915;22;20023;-91
2024/02/15 00:36:29;;;;;;;5.35;4.28;;;12.80;99.90;;;;;;6254698;22;20049;-91
2024/02/15 00:38:55;;;;;;;7.28;5.28;;;12.80;99.90;;;;;;6279123;22;20011;-91
2024/02/15 00:41:21;;;;;;;7.72;6.10;;;12.80;99.90;;;;;;6278862;22;20007;-92
2024/02/15 00:43:47;;;;;;;5.65;4.90;;;12.80;99.90;;;;;;6278346;22;20022;-91
2024/02/15 00:46:14;;;;;;;6.32;5.72;;;12.80;99.90;;;;;;6253130;22;20378;-91
2024/02/15 00:48:40;;;;;;;6.97;5.82;;;12.80;99.90;;;;;;6253245;22;20014;-91
2024/02/15 00:51:06;;;;;;;5.72;5.13;;;12.80;99.90;;;;;;6278921;22;19999;-91
2024/02/15 00:53:32;;;;;;;6.47;5.47;;;12.80;99.90;;;;;;6278466;22;20018;-91
2024/02/15 00:55:58;;;;;;;5.93;5.20;;;12.80;99.90;;;;;;6278719;22;20434;-90
2024/02/15 00:58:24;;;;;;;8.55;7.28;;;12.80;99.90;;;;;;6306084;22;20105;-90
2024/02/15 01:00:50;;;;;;;8.38;6.43;;;12.80;99.90;;;;;;6280025;22;20308;-91
2024/02/15 01:03:16;;;;;;;6.93;5.95;;;12.80;99.90;;;;;;6254686;22;20037;-90
2024/02/15 01:05:42;;;;;;;8.23;6.88;;;12.80;99.90;;;;;;6280723;22;20011;-91
2024/02/15 01:08:08;;;;;;;6.90;6.07;;;12.80;99.90;;;;;;6254737;22;20292;-91
2024/02/15 01:10:35;;;;;;;5.53;4.82;;;12.80;99.90;;;;;;6254658;22;20396;-91
2024/02/15 01:13:00;;;;;;;6.50;5.32;;;12.80;99.90;;;;;;6279588;22;20435;-90
2024/02/15 01:15:26;;;;;;;7.07;5.88;;;12.80;99.90;;;;;;6254106;22;20096;-90
2024/02/15 01:17:52;;;;;;;8.43;5.68;;;12.80;99.90;;;;;;6254197;22;20011;-91
2024/02/15 01:20:17;;;;;;;5.82;5.22;;;12.80;99.90;;;;;;6254161;22;20011;-90
2024/02/15 01:22:44;;;;;;;6.15;5.53;;;12.80;99.90;;;;;;6254230;22;19999;-90
2024/02/15 01:25:10;;;;;;;9.10;5.30;;;12.80;99.90;;;;;;6279876;22;20031;-90
2024/02/15 01:27:36;;;;;;;6.10;5.22;;;12.80;99.90;;;;;;6254493;22;19999;-91
2024/02/15 01:30:02;;;;;;;7.00;5.53;;;12.80;99.90;;;;;;6254566;22;20133;-90
2024/02/15 01:32:28;;;;;;;9.85;6.65;;;12.80;99.90;;;;;;6253844;22;20030;-88
2024/02/15 01:34:54;;;;;;;6.20;4.75;;;12.80;99.90;;;;;;6279684;22;20102;-90
2024/02/15 01:37:23;;;;;;;8.55;4.85;;;12.80;99.90;;;;;;6279641;22;20451;-90
2024/02/15 01:39:49;;;;;;;5.85;4.50;;;12.80;99.90;;;;;;6279941;22;20033;-90
2024/02/15 01:42:15;;;;;;;4.82;3.58;;;12.80;99.90;;;;;;6278115;22;20014;-91
2024/02/15 01:44:43;;;;;;;4.90;4.15;;;12.80;99.90;;;;;;6254174;22;20327;-90
2024/02/15 01:47:10;;;;;;;9.38;5.93;;;12.80;99.90;;;;;;6254358;22;20440;-91
2024/02/15 01:49:36;;;;;;;5.32;3.85;;;12.80;99.90;;;;;;6279827;22;20417;-90
2024/02/15 01:52:08;;;;;;;7.78;5.75;;;12.80;99.90;;;;;;6254864;22;20169;-89
2024/02/15 01:54:35;;;;;;;5.28;4.13;;;12.80;99.90;;;;;;6253484;22;20439;-89
2024/02/15 01:57:02;;;;;;;6.47;4.22;;;12.80;99.90;;;;;;6306817;22;20007;-90
2024/02/15 01:59:30;;;;;;;6.30;4.88;;;12.80;99.90;;;;;;6253984;22;20094;-90
2024/02/15 02:01:55;;;;;;;8.93;5.90;;;12.90;99.90;;;;;;6306944;22;20003;-90
2024/02/15 02:04:21;;;;;;;9.13;6.47;;;12.90;99.90;;;;;;6279611;22;20898;-89
2024/02/15 02:06:47;;;;;;;5.82;4.78;;;12.80;99.90;;;;;;6279902;22;20074;-90
2024/02/15 02:09:14;;;;;;;6.20;4.38;;;12.80;99.90;;;;;;6279601;22;20070;-90
2024/02/15 02:11:41;;;;;;;8.25;6.72;;;12.80;99.90;;;;;;6279436;22;20383;-92
2024/02/15 02:14:07;;;;;;;5.95;5.45;;;12.80;99.90;;;;;;6306823;22;20015;-90
2024/02/15 02:16:32;;;;;;;9.13;7.55;;;12.80;99.90;;;;;;6306377;22;20506;-90
2024/02/15 02:18:59;;;;;;;12.00;8.57;;;12.80;99.90;;;;;;6254183;22;20086;-89
2024/02/15 02:21:28;;;;;;;9.43;7.03;;;12.80;99.90;;;;;;6253597;22;20086;-89
2024/02/15 02:23:58;;;;;;;10.25;8.65;;;12.70;99.90;;;;;;6279734;22;20103;-90
2024/02/15 02:26:24;;;;;;;12.88;8.00;;;12.80;99.90;;;;;;6253599;22;20007;-90
2024/02/15 02:28:53;;;;;;;10.60;7.50;;;12.70;99.90;;;;;;6307131;22;20098;-90
2024/02/15 02:31:20;;;;;;;8.68;6.45;;;12.80;99.90;;;;;;6278965;22;20027;-90
2024/02/15 02:33:53;;;;;;;9.48;5.63;;;12.70;99.90;;;;;;6279475;22;20018;-89
2024/02/15 02:36:21;;;;;;;10.00;7.50;;;12.70;99.90;;;;;;6278652;22;20018;-91
2024/02/15 02:38:50;;;;;;;10.82;7.32;;;12.70;99.90;;;;;;6278685;22;20007;-90
2024/02/15 02:41:19;;;;;;;7.13;4.97;;;12.80;99.90;;;;;;6253566;22;20008;-90
2024/02/15 02:43:45;;;;;;;6.18;4.38;;;12.70;99.90;;;;;;6254124;22;20554;-91
2024/02/15 02:46:11;;;;;;;8.13;4.72;;;12.70;99.90;;;;;;6253680;22;20088;-90
2024/02/15 02:48:38;;;;;;;6.97;3.28;;;12.70;99.90;;;;;;6279569;22;20007;-90
2024/02/15 02:51:04;;;;;;;6.57;3.50;;;12.70;99.90;;;;;;6253991;22;20007;-89
2024/02/15 02:53:30;;;;;;;9.95;4.28;;;12.60;99.90;;;;;;6252922;22;20501;-91
2024/02/15 02:55:58;;;;;;;6.35;4.45;;;12.70;99.90;;;;;;6254035;22;20030;-91
2024/02/15 02:58:24;;;;;;;4.25;3.67;;;12.70;99.90;;;;;;6279121;22;19999;-90
2024/02/15 03:00:51;;;;;;;7.40;3.85;;;12.70;99.90;;;;;;6280081;22;20086;-89
2024/02/15 03:03:19;;;;;;;4.82;3.33;;;12.60;99.90;;;;;;6253868;22;20005;-90
2024/02/15 03:05:44;;;;;;;5.63;3.38;;;12.60;99.90;;;;;;6254947;22;20003;-90
2024/02/15 03:08:12;;;;;;;3.80;2.72;;;12.60;99.90;;;;;;6308304;22;20090;-89
2024/02/15 03:10:38;;;;;;;7.68;4.43;;;12.50;99.90;;;;;;6255539;22;20038;-90
2024/02/15 03:13:06;;;;;;;5.72;3.50;;;12.60;99.90;;;;;;6308343;22;20007;-90
2024/02/15 03:15:32;;;;;;;6.22;3.45;;;12.60;99.90;;;;;;6254838;22;20023;-89
2024/02/15 03:17:59;;;;;;;9.32;4.53;;;12.60;99.90;;;;;;6255614;22;20010;-90
2024/02/15 03:20:25;;;;;;;9.88;5.05;;;12.50;99.90;;;;;;6254210;22;20419;-91
2024/02/15 03:22:52;;;;;;;5.68;3.58;;;12.50;99.90;;;;;;6281209;22;20003;-91
2024/02/15 03:25:17;;;;;;;5.50;3.80;;;12.50;99.90;;;;;;6280778;22;20332;-89
2024/02/15 03:27:43;;;;;;;5.30;3.05;;;12.50;99.90;;;;;;6308107;22;20006;-90
2024/02/15 03:30:12;;;;;;;5.95;2.80;;;12.40;99.90;;;;;;6281055;22;20056;-90
2024/02/15 03:32:37;;;;;;;5.22;2.33;;;12.50;99.90;;;;;;6280836;22;20011;-89
2024/02/15 03:35:03;;;;;;;3.78;1.90;;;12.40;99.90;;;;;;6255258;22;20015;-89
2024/02/15 03:37:29;;;;;;;8.80;3.35;;;12.40;99.90;;;;;;6280887;22;20026;-90
2024/02/15 03:39:55;;;;;;;4.28;2.10;;;12.50;99.90;;;;;;6254994;22;20011;-89
2024/02/15 03:42:20;;;;;;;5.55;2.40;;;12.40;99.90;;;;;;6307687;22;20061;-89
2024/02/15 03:44:47;;;;;;;3.90;2.00;;;12.50;99.90;;;;;;6308055;22;20435;-90
2024/02/15 03:47:14;;;;;;;7.45;2.65;;;12.40;99.90;;;;;;6280721;22;20006;-90
2024/02/15 03:49:42;;;;;;;4.25;2.03;;;12.40;99.90;;;;;;6281270;22;20022;-89
2024/02/15 03:52:10;;;;;;;5.30;1.92;;;12.50;99.90;;;;;;6254804;22;20359;-89
2024/02/15 03:54:36;;;;;;;7.97;2.60;;;12.50;99.90;;;;;;6255177;22;20015;-89
2024/02/15 03:57:02;;;;;;;6.32;2.42;;;12.40;99.90;;;;;;6280280;22;20004;-89
2024/02/15 03:59:27;;;;;;;5.90;2.45;;;12.50;99.90;;;;;;6255088;22;20011;-91
2024/02/15 04:01:54;;;;;;;4.35;1.80;;;12.50;99.90;;;;;;6280474;22;20336;-90
2024/02/15 04:04:23;;;;;;;7.40;3.22;;;12.50;99.90;;;;;;6281437;22;20007;-90
2024/02/15 04:06:49;;;;;;;5.63;2.67;;;12.50;99.90;;;;;;6255035;22;20428;-90
2024/02/15 04:09:15;;;;;;;5.18;2.20;;;12.50;99.90;;;;;;6280298;22;20008;-89
2024/02/15 04:11:41;;;;;;;4.30;2.05;;;12.50;99.90;;;;;;6280939;22;20343;-90
2024/02/15 04:14:07;;;;;;;3.67;1.33;;;12.50;99.90;;;;;;6279710;22;20017;-90
2024/02/15 04:16:33;;;;;;;3.75;1.00;;;12.40;99.90;;;;;;6278948;22;20305;-90
2024/02/15 04:18:59;;;;;;;5.22;1.52;;;12.40;99.90;;;;;;6255092;22;20003;-91
2024/02/15 04:21:26;;;;;;;3.45;1.30;;;12.50;99.90;;;;;;6279809;22;20755;-90
2024/02/15 04:23:53;;;;;;;4.35;1.83;;;12.40;99.90;;;;;;6280477;22;20007;-90
2024/02/15 04:26:19;;;;;;;2.60;0.85;;;12.40;99.90;;;;;;6254681;22;20007;-90
2024/02/15 04:28:52;;;;;;;3.28;1.30;;;12.30;99.90;;;;;;6280459;22;20056;-90
2024/02/15 04:31:18;;;;;;;5.13;1.25;;;12.30;99.90;;;;;;6279721;22;20436;-90
2024/02/15 04:33:43;;;;;;;2.90;0.88;;;12.40;99.90;;;;;;6254690;22;20046;-90
2024/02/15 04:36:09;;;;;;;4.13;0.95;;;12.40;99.90;;;;;;6254849;22;20072;-89
2024/02/15 04:38:35;;;;;;;2.63;1.00;;;12.30;99.90;;;;;;6280392;22;20007;-90
2024/02/15 04:41:03;;;;;;;4.97;1.55;;;12.40;99.90;;;;;;6255190;22;20011;-90
2024/02/15 04:43:29;;;;;;;6.65;1.85;;;12.40;99.90;;;;;;6279885;22;20004;-89
2024/02/15 04:45:55;;;;;;;7.20;1.88;;;12.40;99.90;;;;;;6280635;22;20003;-90
2024/02/15 04:48:23;;;;;;;7.00;1.98;;;12.50;99.90;;;;;;6280156;22;20170;-91
2024/02/15 04:50:49;;;;;;;3.95;1.88;;;12.50;99.90;;;;;;6254787;22;20010;-91
2024/02/15 04:53:15;;;;;;;7.50;2.80;;;12.50;99.90;;;;;;6280307;22;20003;-89
2024/02/15 04:55:40;;;;;;;4.70;1.90;;;12.50;99.90;;;;;;6254440;22;20015;-89
2024/02/15 04:58:06;;;;;;;4.50;1.75;;;12.50;99.90;;;;;;6253498;22;20091;-90
2024/02/15 05:00:32;;;;;;;7.75;3.88;;;12.50;99.90;;;;;;6254559;22;20131;-91
2024/02/15 05:02:58;;;;;;;7.43;2.92;;;12.50;99.90;;;;;;6280144;22;20074;-90
2024/02/15 05:05:24;;;;;;;9.40;3.65;;;12.50;99.90;;;;;;6279535;22;19999;-90
2024/02/15 05:07:50;;;;;;;6.55;2.50;;;12.60;99.90;;;;;;6254558;22;20007;-90
2024/02/15 05:10:16;;;;;;;6.03;2.53;;;12.60;99.90;;;;;;6279630;22;20124;-90
2024/02/15 05:12:47;;;;;;;6.03;2.55;;;12.50;99.90;;;;;;6280061;22;20054;-91
2024/02/15 05:15:16;;;;;;;5.93;2.03;;;12.50;99.90;;;;;;6254355;22;20092;-92
2024/02/15 05:17:42;;;;;;;5.72;2.15;;;12.50;99.90;;;;;;6254520;22;20006;-90
2024/02/15 05:20:13;;;;;;;4.05;1.85;;;12.50;99.90;;;;;;6280117;22;20023;-91
2024/02/15 05:22:48;;;;;;;2.20;0.90;;;12.50;99.90;;;;;;6279947;22;20071;-91
2024/02/15 05:25:15;;;;;;;4.82;1.80;;;12.50;99.90;;;;;;6254177;22;20013;-91
2024/02/15 05:27:42;;;;;;;3.28;1.42;;;12.50;99.90;;;;;;6307061;22;20004;-93
2024/02/15 05:30:08;;;;;;;3.08;1.45;;;12.50;99.90;;;;;;6306576;22;20008;-92
2024/02/15 05:32:41;;;;;;;4.60;2.58;;;12.50;99.90;;;;;;6279596;22;20038;-91
2024/02/15 05:35:08;;;;;;;3.58;1.30;;;12.50;99.90;;;;;;6254495;22;20071;-93
2024/02/15 05:37:34;;;;;;;4.97;1.80;;;12.50;99.90;;;;;;6279717;22;20372;-92
2024/02/15 05:40:00;;;;;;;2.53;1.13;;;12.50;99.90;;;;;;6280008;22;20060;-91
2024/02/15 05:42:26;;;;;;;4.57;1.63;;;12.50;99.90;;;;;;6279784;22;19999;-90
2024/02/15 05:44:52;;;;;;;4.47;1.17;;;12.50;99.90;;;;;;6254706;22;20753;-91
2024/02/15 05:47:18;;;;;;;2.53;1.00;;;12.50;99.90;;;;;;6279517;22;20008;-92
2024/02/15 05:49:44;;;;;;;3.65;1.60;;;12.50;99.90;;;;;;6254532;22;20008;-92
2024/02/15 05:52:11;;;;;;;2.83;1.17;;;12.50;99.90;;;;;;6253789;22;20007;-92
2024/02/15 05:54:37;;;;;;;4.88;1.42;;;12.50;99.90;;;;;;6305786;22;20015;-92
2024/02/15 05:57:02;;;;;;;4.60;1.00;;;12.50;99.90;;;;;;6254529;22;20010;-92
2024/02/15 05:59:28;;;;;;;2.60;0.90;;;12.50;99.90;;;;;;6279768;22;20008;-92
2024/02/15 06:01:54;;;;;;;4.25;0.90;;;12.50;99.90;;;;;;6253139;22;20004;-92
2024/02/15 06:04:20;;;;;;;4.28;0.90;;;12.40;99.90;;;;;;6278057;22;20010;-92
2024/02/15 06:06:48;;;;;;;4.65;1.20;;;12.50;99.90;;;;;;6278585;22;20007;-93
2024/02/15 06:09:14;;;;;;;4.18;0.80;;;12.50;99.90;;;;;;6252397;22;20456;-93
2024/02/15 06:11:40;;;;;;;2.42;0.63;;;12.40;99.90;;;;;;6252434;22;20031;-94
2024/02/15 06:14:06;;;;;;;2.55;0.50;;;12.40;99.90;;;;;;6276104;22;20033;-88
2024/02/15 06:16:32;;;;;;;2.17;0.52;;;12.40;99.90;;;;;;6251948;22;20008;-94
2024/02/15 06:18:57;;;;;;;2.53;0.70;;;12.40;99.90;;;;;;6252274;22;20003;-95
2024/02/15 06:21:23;;;;;;;2.83;0.60;;;12.40;99.90;;;;;;6277800;22;20007;-90
2024/02/15 06:23:50;;;;;;;2.17;0.50;;;12.40;99.90;;;;;;6252810;22;20042;-87
2024/02/15 06:26:17;;;;;;;1.92;0.60;;;12.40;99.90;;;;;;6252355;22;20007;-94
2024/02/15 06:39:41;;;;;;;2.60;0.60;;;12.40;99.90;;;;;;6305559;22;20011;-93
2024/02/15 06:42:08;;;;;;;3.65;0.98;;;12.40;99.90;;;;;;6254373;22;20027;-94
2024/02/15 06:44:33;;;;;;;2.85;0.45;;;12.50;99.90;;;;;;6254226;22;20041;-94
2024/02/15 06:46:59;;;;;;;2.78;0.60;;;12.50;99.90;;;;;;6254065;22;20099;-91
2024/02/15 06:49:25;;;;;;;4.50;0.50;;;12.50;99.90;;;;;;6254520;22;20004;-92
2024/02/15 06:51:51;;;;;;;2.75;0.50;;;12.50;99.90;;;;;;6253390;22;20273;-93
2024/02/15 06:54:20;;;;;;;3.63;0.47;;;12.50;99.90;;;;;;6253882;22;20023;-94
2024/02/15 06:56:49;;;;;;;3.25;0.60;;;12.50;99.90;;;;;;6280235;22;20026;-94
2024/02/15 06:59:14;;;;;;;4.82;0.60;;;12.50;99.90;;;;;;6306744;22;20078;-91
2024/02/15 07:01:43;;;;;;;2.72;0.57;;;12.50;99.90;;;;;;6254122;22;20033;-93
2024/02/15 07:04:12;;;;;;;1.88;0.60;;;12.50;99.90;;;;;;6254603;22;20086;-93
2024/02/15 07:06:38;;;;;;;1.85;0.60;;;12.50;99.90;;;;;;6254311;22;20007;-93
2024/02/15 07:09:06;;;;;;;2.00;0.50;;;12.60;99.90;;;;;;6279479;22;20011;-93
2024/02/15 07:11:35;;;;;;;2.38;0.60;;;12.60;99.90;;;;;;6253885;22;20034;-93
2024/02/15 07:14:01;;;;;;;3.28;0.55;;;12.50;99.90;;;;;;6253265;22;20050;-91
2024/02/15 07:16:27;;;;;;;3.55;0.60;;;12.60;99.90;;;;;;6253398;22;20014;-95
2024/02/15 07:18:53;;;;;;;3.22;0.70;;;12.60;99.90;;;;;;6279749;22;19995;-92
2024/02/15 07:21:25;;;;;;;2.50;0.70;;;12.60;99.90;;;;;;6279083;22;20010;-95
2024/02/15 07:23:51;;;;;;;4.00;1.25;;;12.60;99.90;;;;;;6279407;22;20466;-91
2024/02/15 07:26:20;;;;;;;4.15;0.50;;;12.60;99.90;;;;;;6279193;22;20003;-94
2024/02/15 07:28:47;;;;;;;2.28;0.60;;;12.60;99.90;;;;;;6279354;22;20007;-92
2024/02/15 07:31:14;;;;;;;1.90;0.80;;;12.60;99.90;;;;;;6253027;22;20003;-95
2024/02/15 07:33:42;;;;;;;3.45;0.70;;;12.60;99.90;;;;;;6306656;22;20015;-94
2024/02/15 07:36:08;;;;;;;2.50;0.68;;;12.60;99.90;;;;;;6306974;22;20010;-95
2024/02/15 07:38:34;;;;;;;1.45;0.50;;;12.60;99.90;;;;;;6279659;22;20000;-96
2024/02/15 07:41:00;;;;;;;1.60;0.77;;;12.60;99.90;;;;;;6253858;22;20015;-95
2024/02/15 07:43:26;;;;;;;2.08;0.40;;;12.60;99.90;;;;;;6253537;22;20011;-94
2024/02/15 07:45:52;;;;;;;0.85;0.40;;;12.60;99.90;;;;;;6279483;22;20026;-93
2024/02/15 07:48:18;;;;;;;2.97;0.40;;;12.60;99.90;;;;;;6254275;22;20007;-92
2024/02/15 07:50:44;;;;;;;1.30;0.40;;;12.60;99.90;;;;;;6253001;22;20328;-93
2024/02/15 07:53:11;;;;;;;1.85;0.45;;;12.60;99.90;;;;;;6252527;22;20011;-93
2024/02/15 07:55:41;;;;;;;2.83;0.82;;;12.60;99.90;;;;;;6253809;22;20038;-94
2024/02/15 07:59:18;;;;;;;;;;;;;;;;;;;;;
2024/02/15 08:01:54;;;;;;;1.70;0.50;;;12.60;99.90;;;;;;6299615;22;20022;-93
2024/02/15 08:04:24;;;;;;;1.42;0.43;;;12.70;99.90;;;;;;6252707;22;20004;-92
2024/02/15 08:06:53;;;;;;;3.22;0.52;;;12.60;99.90;;;;;;6253907;22;20045;-94
2024/02/15 08:09:21;;;;;;;1.50;0.40;;;12.70;99.90;;;;;;6253374;22;20007;-94
2024/02/15 08:11:48;;;;;;;2.70;0.60;;;12.60;99.90;;;;;;6256391;22;20032;-95
2024/02/15 08:14:14;;;;;;;1.45;0.50;;;12.70;99.90;;;;;;6260010;22;20019;-96
2024/02/15 08:16:41;;;;;;;2.65;0.50;;;12.70;99.90;;;;;;6256582;22;20458;-95
2024/02/15 08:19:07;;;;;;;2.05;0.40;;;12.70;99.90;;;;;;6284400;22;20064;-96
2024/02/15 08:21:33;;;;;;;1.67;0.50;;;12.60;99.90;;;;;;6265538;22;20007;-95
2024/02/15 08:24:06;;;;;;;1.48;0.43;;;12.70;99.90;;;;;;6302794;22;19992;-95
2024/02/15 08:26:39;;;;;;;1.70;0.40;;;12.70;99.90;;;;;;6275730;22;20079;-95
2024/02/15 08:29:06;;;;;;;1.05;0.30;;;12.70;99.90;;;;;;6259604;22;20033;-96
2024/02/15 08:31:32;;;;;;;1.83;0.50;;;12.70;99.90;;;;;;6255066;22;20014;-95
2024/02/15 08:33:58;;;;;;;0.82;0.30;;;12.70;99.90;;;;;;6253826;22;20008;-95
2024/02/15 08:36:24;;;;;;;1.00;0.40;;;12.70;99.90;;;;;;6305317;22;20008;-95
2024/02/15 08:38:50;;;;;;;1.35;0.50;;;12.70;99.90;;;;;;6279050;22;20000;-94
2024/02/15 08:41:18;;;;;;;1.92;0.70;;;12.70;99.90;;;;;;6254332;22;20432;-95
2024/02/15 08:43:45;;;;;;;1.98;0.50;;;12.70;99.90;;;;;;6278269;22;20007;-94
2024/02/15 08:46:12;;;;;;;1.92;0.65;;;12.80;99.90;;;;;;6292742;22;20048;-92
2024/02/15 08:48:38;;;;;;;1.40;0.50;;;12.80;99.90;;;;;;6278447;22;20027;-95
2024/02/15 08:51:05;;;;;;;1.27;0.43;;;12.80;99.90;;;;;;6278535;22;20007;-93
2024/02/15 08:53:31;;;;;;;2.45;0.90;;;12.80;99.90;;;;;;6274376;22;20017;-96
2024/02/15 08:55:59;;;;;;;2.67;0.63;;;12.80;99.90;;;;;;6291102;22;20079;-92
2024/02/15 08:58:24;;;;;;;1.08;0.40;;;12.80;99.90;;;;;;6295938;22;20217;-94
2024/02/15 09:00:50;;;;;;;2.05;0.50;;;12.80;99.90;;;;;;6259487;22;20481;-93
2024/02/15 09:03:16;;;;;;;1.13;0.45;;;12.80;99.90;;;;;;6279259;22;20003;-96
2024/02/15 09:05:41;;;;;;;1.42;0.52;;;12.80;99.90;;;;;;6267850;22;20011;-94
2024/02/15 09:08:36;;;;;;;1.00;0.40;;;12.80;99.90;;;;;;6293842;22;20007;-94
2024/02/15 09:11:13;;;;;;;1.73;0.60;;;12.80;99.90;;;;;;6294062;22;20027;-96
2024/02/15 09:13:39;;;;;;;1.23;0.32;;;12.80;99.90;;;;;;6273028;22;20012;-96
2024/02/15 09:16:05;;;;;;;1.10;0.30;;;12.80;99.90;;;;;;6287517;22;20015;-96
2024/02/15 09:18:33;;;;;;;0.90;0.30;;;12.80;99.90;;;;;;6250259;22;20004;-95
2024/02/15 09:20:59;;;;;;;1.38;0.20;;;12.90;99.90;;;;;;6273741;22;20318;-86
2024/02/15 09:23:25;;;;;;;1.02;0.40;;;12.90;99.90;;;;;;6245878;22;20011;-86
2024/02/15 09:25:54;;;;;;;1.10;0.30;;;12.90;99.90;;;;;;6246325;22;20321;-85
2024/02/15 09:28:23;;;;;;;2.05;0.52;;;12.90;99.90;;;;;;6247019;22;20011;-88
2024/02/15 09:30:51;;;;;;;1.77;0.40;;;12.90;99.90;;;;;;6273036;22;20026;-89
2024/02/15 09:33:19;;;;;;;1.27;0.40;;;12.90;99.90;;;;;;6245922;22;20039;-89
2024/02/15 09:35:44;;;;;;;1.00;0.30;;;12.80;99.90;;;;;;6247019;22;20019;-88
2024/02/15 09:38:10;;;;;;;2.22;0.40;;;12.90;99.90;;;;;;6272148;22;20336;-89
2024/02/15 09:40:35;;;;;;;1.67;0.65;;;12.90;99.90;;;;;;6246329;22;20035;-89
2024/02/15 09:43:01;;;;;;;1.55;0.40;;;12.90;99.90;;;;;;6246398;22;20011;-88
2024/02/15 09:45:27;;;;;;;1.10;0.30;;;12.90;99.90;;;;;;6272121;22;20076;-89
2024/02/15 09:47:54;;;;;;;2.42;0.32;;;12.90;99.90;;;;;;6272469;22;20174;-93
2024/02/15 09:50:21;;;;;;;1.20;0.30;;;12.90;99.90;;;;;;6246899;22;20042;-92
2024/02/15 09:52:56;;;;;;;1.10;0.20;;;12.90;99.90;;;;;;6247211;22;20012;-91
2024/02/15 09:55:23;;;;;;;0.70;0.22;;;12.90;99.90;;;;;;6272172;22;20031;-91
2024/02/15 09:57:50;;;;;;;1.58;0.30;;;12.90;99.90;;;;;;6246587;22;20010;-92
2024/02/15 10:00:16;;;;;;;1.80;0.30;;;13.00;99.90;;;;;;6246315;22;20003;-92
2024/02/15 10:02:44;;;;;;;0.82;0.30;;;12.90;99.90;;;;;;6272107;22;20011;-90
2024/02/15 10:05:13;;;;;;;0.93;0.30;;;13.10;99.90;;;;;;6246239;22;20034;-86
2024/02/15 10:07:40;;;;;;;1.25;0.30;;;13.10;99.90;;;;;;6272554;22;20008;-92
2024/02/15 10:10:19;;;;;;;1.23;0.30;;;13.10;99.90;;;;;;6251533;22;20015;-91
2024/02/15 10:12:51;;;;;;;0.90;0.30;;;13.10;99.90;;;;;;6277990;22;20011;-92
2024/02/15 10:15:30;;;;;;;0.60;0.30;;;13.10;99.90;;;;;;6252561;22;20076;-93
2024/02/15 10:17:56;;;;;;;0.95;0.30;;;13.20;99.90;;;;;;6253783;22;20007;-92
2024/02/15 10:20:25;;;;;;;1.90;0.30;;;13.30;99.90;;;;;;6279630;22;20003;-91
2024/02/15 10:23:08;;;;;;;3.25;0.40;;;13.30;99.90;;;;;;6306616;22;20011;-92
2024/02/15 10:25:34;;;;;;;2.30;0.82;;;13.30;99.90;;;;;;6253189;22;20435;-93
2024/02/15 10:28:08;;;;;;;1.02;0.38;;;13.30;99.90;;;;;;6279979;22;20003;-92
2024/02/15 10:30:35;;;;;;;1.25;0.30;;;13.40;99.90;;;;;;6253725;22;20124;-92
2024/02/15 10:33:02;;;;;;;0.90;0.30;;;13.50;99.90;;;;;;6253691;22;20003;-93
2024/02/15 10:35:28;;;;;;;1.10;0.30;;;13.50;99.90;;;;;;6279924;22;20090;-93
2024/02/15 10:38:05;;;;;;;1.15;0.30;;;13.50;99.90;;;;;;6279475;22;20363;-92
2024/02/15 10:40:30;;;;;;;2.33;0.43;;;13.50;99.90;;;;;;6306303;22;20003;-91
2024/02/15 10:42:59;;;;;;;2.10;0.45;;;13.50;99.90;;;;;;6278763;22;20018;-91
2024/02/15 10:45:25;;;;;;;3.58;0.70;;;13.40;99.90;;;;;;6278999;22;20003;-86
2024/02/15 10:47:52;;;;;;;1.63;0.30;;;13.30;99.90;;;;;;6278893;22;20116;-85
2024/02/15 10:50:17;;;;;;;1.45;0.30;;;13.30;99.90;;;;;;6279003;22;20057;-88
2024/02/15 10:52:59;;;;;;;2.45;0.45;;;13.40;99.90;;;;;;6278983;22;20011;-86
2024/02/15 10:55:53;;;;;;;4.25;0.50;;;13.40;99.90;;;;;;6252390;22;20020;-86
2024/02/15 10:58:23;;;;;;;1.98;0.50;;;13.40;99.90;;;;;;6253122;22;20008;-87
2024/02/15 11:00:50;;;;;;;3.20;0.40;;;13.30;99.90;;;;;;6252964;22;20384;-87
2024/02/15 11:03:30;;;;;;;2.22;0.55;;;13.40;99.90;;;;;;6278984;22;20070;-88
2024/02/15 11:06:00;;;;;;;4.47;0.63;;;13.30;99.90;;;;;;6253549;22;20010;-86
2024/02/15 11:08:27;;;;;;;2.75;0.40;;;13.40;99.90;;;;;;6278289;22;20007;-88
2024/02/15 11:10:55;;;;;;;2.00;0.38;;;13.40;99.90;;;;;;6252441;22;20019;-86
2024/02/15 11:13:20;;;;;;;3.22;0.43;;;13.50;99.90;;;;;;6278279;22;20007;-89
2024/02/15 11:15:51;;;;;;;2.00;0.40;;;13.40;99.90;;;;;;6253318;22;20026;-89
2024/02/15 11:18:48;;;;;;;3.90;0.70;;;13.40;99.90;;;;;;6278424;22;20508;-90
2024/02/15 11:21:20;;;;;;;1.08;0.40;;;13.40;99.90;;;;;;6244423;22;20006;-90
2024/02/15 11:23:46;;;;;;;1.00;0.30;;;13.50;99.90;;;;;;6253324;22;20018;-89
2024/02/15 11:26:47;;;;;;;1.55;0.70;;;13.50;99.90;;;;;;6278221;22;20003;-90
2024/02/15 11:29:48;;;;;;;1.83;0.40;;;13.60;99.90;;;;;;6279027;22;20011;-90
2024/02/15 11:32:39;;;;;;;1.95;0.40;;;13.70;99.90;;;;;;6278781;22;20007;-90
2024/02/15 11:35:16;;;;;;;2.20;0.40;;;13.80;99.90;;;;;;6278745;22;20448;-90
2024/02/15 11:37:47;;;;;;;2.28;0.40;;;13.80;99.90;;;;;;6253365;22;20111;-91
2024/02/15 11:40:17;;;;;;;2.28;0.52;;;13.90;99.90;;;;;;6277971;22;20003;-89
2024/02/15 11:42:43;;;;;;;1.38;0.40;;;13.90;99.90;;;;;;6279078;22;19999;-91
2024/02/15 11:45:09;;;;;;;1.50;0.40;;;13.90;99.90;;;;;;6278625;22;20003;-89
2024/02/15 11:47:39;;;;;;;1.67;0.30;;;14.00;99.90;;;;;;6253581;22;20003;-89
2024/02/15 11:50:12;;;;;;;1.33;0.30;;;14.00;99.90;;;;;;6306160;22;20019;-90
2024/02/15 11:52:51;;;;;;;1.48;0.40;;;14.10;99.90;;;;;;6252859;22;20007;-91
2024/02/15 11:55:23;;;;;;;1.67;0.32;;;14.00;99.90;;;;;;6252230;22;20425;-89
2024/02/15 11:58:28;;;;;;;0.75;0.30;;;14.00;99.90;;;;;;6304648;22;20003;-90
2024/02/15 12:20:11;;;;;;;1.77;0.30;;;14.30;99.90;;;;;;6277901;22;20007;-85
2024/02/15 12:22:41;;;;;;;0.77;0.20;;;14.30;99.90;;;;;;6252890;22;20017;-87
2024/02/15 12:25:13;;;;;;;0.90;0.20;;;14.40;99.90;;;;;;6252207;22;20003;-85
2024/02/15 12:27:46;;;;;;;1.38;0.28;;;14.40;99.90;;;;;;6277893;22;20003;-91
2024/02/15 12:30:15;;;;;;;1.10;0.22;;;14.30;99.90;;;;;;6252424;22;20462;-94
2024/02/15 12:32:41;;;;;;;2.15;0.30;;;14.40;99.90;;;;;;6278413;22;20061;-92
2024/02/15 12:35:25;;;;;;;1.08;0.30;;;14.30;99.90;;;;;;6252533;22;20019;-92
2024/02/15 12:38:02;;;;;;;0.90;0.30;;;14.30;99.90;;;;;;6305293;22;20388;-93
2024/02/15 12:40:36;;;;;;;0.82;0.32;;;14.20;99.90;;;;;;6277316;22;20011;-93
2024/02/15 12:43:05;;;;;;;1.58;0.40;;;14.20;99.90;;;;;;6252819;22;20308;-90
2024/02/15 12:45:32;;;;;;;2.05;0.40;;;14.20;99.90;;;;;;6277442;22;19996;-91
2024/02/15 12:47:58;;;;;;;1.35;0.30;;;14.20;99.90;;;;;;6278287;22;20019;-93
2024/02/15 12:50:28;;;;;;;1.50;0.40;;;14.20;99.90;;;;;;6251939;22;20022;-91
2024/02/15 12:52:55;;;;;;;;;;;14.20;99.90;;;;;;6253494;22;20003;-93
2024/02/15 12:55:24;;;;;;;1.40;0.30;;;14.20;99.90;;;;;;6304613;22;19918;-94
2024/02/15 12:57:55;;;;;;;1.40;0.40;;;14.20;99.90;;;;;;6252606;22;20090;-94
2024/02/15 13:00:31;;;;;;;0.98;0.30;;;14.10;99.90;;;;;;6278076;22;20098;-92
2024/02/15 13:02:58;;;;;;;1.30;0.20;;;14.10;99.90;;;;;;6278398;22;20014;-95
2024/02/15 13:05:28;;;;;;;1.40;0.30;;;14.00;99.90;;;;;;6252007;22;20028;-95
2024/02/15 13:07:55;;;;;;;1.00;0.30;;;14.00;99.90;;;;;;6253143;22;20007;-93
2024/02/15 13:10:21;;;;;;;1.20;0.20;;;13.90;99.90;;;;;;6278682;22;20064;-93
2024/02/15 13:12:48;;;;;;;0.75;0.28;;;14.00;99.90;;;;;;6277645;22;20049;-95
2024/02/15 13:15:17;;;;;;;1.75;0.28;;;14.00;99.90;;;;;;6306291;22;20041;-94
2024/02/15 13:17:48;;;;;;;2.47;0.30;;;14.00;99.90;;;;;;6278406;22;20026;-94
2024/02/15 13:20:15;;;;;;;1.65;0.50;;;14.00;99.90;;;;;;6278144;22;20014;-95
2024/02/15 13:22:43;;;;;;;0.73;0.20;;;13.90;99.90;;;;;;6277716;22;20023;-94
2024/02/15 13:25:10;;;;;;;1.50;0.40;;;13.90;99.90;;;;;;6279581;22;20011;-93